KCLE/CLE METAR and TAF weather

Enter ICAO airport designator
Station Type Date Time Source
KCLE METAR 2020/04/07 02:51 UTC NOAA

KCLE 070251Z 34003KT 10SM OVC100 09/02 A3004 RMK AO2 SLP175 T00940022 55001


Station Type Date Time Source
KCLE Decoded METAR 2020/04/07 02:51 UTC NOAA

CLEVELAND-HOPKINS INTERNATIONAL , OH, United States (KCLE) 41-24N 081-51W 236M
Apr 06, 2020 - 10:51 PM EDT / 2020.04.07 0251 UTC
Wind: from the NNW (340 degrees) at 3 MPH (3 KT):0
Visibility: 10 mile(s):0
Sky conditions: overcast
Temperature: 48.9 F (9.4 C)
Dew Point: 36.0 F (2.2 C)
Relative Humidity: 60%
Pressure (altimeter): 30.04 in. Hg (1017 hPa)
Pressure tendency: 0.00 inches (0.1 hPa) lower than three hours ago
ob: KCLE 070251Z 34003KT 10SM OVC100 09/02 A3004 RMK AO2 SLP175 T00940022 55001
cycle: 3

Station Type Date Time Source
KCLE TAF 2020/04/07 03:22 UTC NOAA

TAF
AMD KCLE 070320Z 0703/0806 05004KT P6SM BKN100
TEMPO 0707/0709 5SM -SHRA OVC030
FM071200 17005KT 5SM BR VCSH OVC020
FM071600 20006KT P6SM OVC015
FM080300 25005KT 6SM BR VCSH BKN040

Example: see airport list